Time;durP1;ratioP1;P1;durP2;ratioP2;P2;SDS_P1;SDS_P2;PMS_P1;PMS_P2;Temp;Humidity;BMP_temperature;BMP_pressure;BME280_temperature;BME280_humidity;BME280_pressure;Samples;Min_cycle;Max_cycle;Signal;HPM_P1;HPM_P2
2022/10/10 00:00:26;;;;;;;3.80;2.50;;;9.00;96.40;;;;;;4233539;28;20516;-85
2022/10/10 00:02:27;;;;;;;3.38;2.38;;;9.00;96.40;;;;;;4233735;28;20065;-86
2022/10/10 00:04:28;;;;;;;5.53;2.47;;;9.00;96.10;;;;;;4233926;28;20115;-86
2022/10/10 00:06:29;;;;;;;5.43;3.00;;;8.90;96.30;;;;;;4234109;28;20080;-85
2022/10/10 00:08:30;;;;;;;6.53;3.20;;;8.90;96.40;;;;;;4233775;28;20381;-86
2022/10/10 00:10:31;;;;;;;10.05;2.97;;;8.80;96.50;;;;;;4234097;28;20078;-86
2022/10/10 00:12:32;;;;;;;4.00;2.60;;;8.90;96.70;;;;;;4232438;28;20062;-86
2022/10/10 00:14:33;;;;;;;5.60;2.47;;;8.90;96.90;;;;;;4233288;28;20059;-86
2022/10/10 00:16:33;;;;;;;5.47;2.55;;;8.80;96.60;;;;;;4233764;28;20035;-86
2022/10/10 00:18:35;;;;;;;7.05;2.85;;;8.80;97.10;;;;;;4215658;28;20079;-86
2022/10/10 00:20:36;;;;;;;5.50;2.90;;;8.80;97.00;;;;;;4233643;28;20397;-86
2022/10/10 00:22:37;;;;;;;6.97;3.28;;;8.80;96.90;;;;;;4233359;28;20450;-86
2022/10/10 00:24:38;;;;;;;5.75;2.47;;;7.70;96.70;;;;;;4232611;28;20044;-86
2022/10/10 00:26:39;;;;;;;4.72;2.63;;;7.90;96.80;;;;;;4211890;28;20048;-86
2022/10/10 00:28:39;;;;;;;4.97;2.80;;;8.70;97.00;;;;;;4217353;28;20115;-86
2022/10/10 00:30:40;;;;;;;6.65;2.63;;;8.70;97.00;;;;;;4217407;28;20503;-87
2022/10/10 00:32:41;;;;;;;7.15;2.85;;;8.70;96.90;;;;;;4217028;28;20089;-86
2022/10/10 00:34:42;;;;;;;4.30;2.50;;;8.80;97.20;;;;;;4216760;28;20040;-86
2022/10/10 00:36:44;;;;;;;4.72;3.10;;;8.70;97.10;;;;;;4215929;28;20136;-86
2022/10/10 00:38:44;;;;;;;3.92;2.42;;;8.70;97.20;;;;;;4209076;28;20459;-86
2022/10/10 00:40:53;;;;;;;6.00;3.10;;;8.70;97.20;;;;;;4215217;28;20058;-86
2022/10/10 00:42:54;;;;;;;7.50;2.97;;;8.60;97.20;;;;;;4233037;28;20428;-86
2022/10/10 00:45:22;;;;;;;10.50;2.45;;;8.60;97.40;;;;;;4248919;27;20070;-86
2022/10/10 00:47:23;;;;;;;6.38;3.28;;;8.60;97.20;;;;;;4248871;27;20082;-86
2022/10/10 00:49:28;;;;;;;7.28;2.65;;;8.60;97.10;;;;;;4232898;28;20040;-86
2022/10/10 00:51:30;;;;;;;6.68;2.65;;;8.60;97.10;;;;;;4215243;28;20481;-86
2022/10/10 00:53:43;;;;;;;9.35;2.72;;;8.60;97.20;;;;;;4229555;28;20522;-86
2022/10/10 00:55:44;;;;;;;9.10;2.90;;;8.50;97.30;;;;;;4219862;28;20082;-86
2022/10/10 00:57:46;;;;;;;7.43;2.88;;;8.50;97.60;;;;;;4215598;28;20059;-86
2022/10/10 00:59:47;;;;;;;5.75;2.70;;;8.50;97.40;;;;;;4216559;28;20044;-86
2022/10/10 01:01:48;;;;;;;5.55;2.50;;;8.50;97.60;;;;;;4215579;28;20060;-86
2022/10/10 01:03:49;;;;;;;5.97;2.97;;;8.50;97.80;;;;;;4216404;28;20121;-86
2022/10/10 01:05:50;;;;;;;13.00;3.97;;;8.40;97.80;;;;;;4215314;28;20048;-87
2022/10/10 01:07:53;;;;;;;4.18;2.42;;;8.40;97.90;;;;;;4215666;28;20048;-87
2022/10/10 01:09:57;;;;;;;5.10;2.80;;;8.40;98.00;;;;;;4215650;28;20065;-86
2022/10/10 01:12:39;;;;;;;4.28;3.00;;;8.40;98.10;;;;;;4216289;28;20420;-86
2022/10/10 01:15:05;;;;;;;5.45;2.40;;;8.40;98.10;;;;;;4164979;28;20049;-86
2022/10/10 01:17:45;;;;;;;3.55;2.72;;;8.40;98.00;;;;;;4211130;28;20056;-87
2022/10/10 01:20:17;;;;;;;6.47;2.50;;;8.40;98.50;;;;;;4212628;28;20056;-86
2022/10/10 01:22:50;;;;;;;5.13;3.00;;;8.40;98.00;;;;;;4215598;28;20084;-87
2022/10/10 01:25:24;;;;;;;5.57;3.10;;;8.40;97.90;;;;;;4209498;28;20060;-86
2022/10/10 01:27:31;;;;;;;8.15;2.78;;;8.30;98.20;;;;;;4215121;28;20048;-87
2022/10/10 01:29:46;;;;;;;5.60;3.13;;;8.30;98.10;;;;;;4216225;28;20525;-87
2022/10/10 01:31:53;;;;;;;5.68;3.28;;;8.30;98.10;;;;;;4215917;28;20079;-86
2022/10/10 01:34:01;;;;;;;5.22;2.78;;;8.30;98.10;;;;;;4214954;28;20060;-86
2022/10/10 01:36:26;;;;;;;4.50;2.55;;;8.30;98.10;;;;;;4215486;28;20056;-86
2022/10/10 01:38:54;;;;;;;4.07;2.65;;;8.30;98.20;;;;;;4216246;28;20087;-86
2022/10/10 01:41:14;;;;;;;4.53;2.92;;;8.20;98.20;;;;;;4215116;28;20109;-86
2022/10/10 01:43:16;;;;;;;6.63;3.03;;;8.20;98.40;;;;;;4214420;28;20429;-86
2022/10/10 01:45:17;;;;;;;4.78;3.00;;;8.20;98.30;;;;;;4216882;28;20079;-86
2022/10/10 01:47:20;;;;;;;9.18;2.92;;;8.20;98.20;;;;;;4214786;28;20044;-86
2022/10/10 01:49:27;;;;;;;4.22;2.95;;;8.20;98.30;;;;;;4216473;28;20036;-85
2022/10/10 01:51:39;;;;;;;6.28;2.67;;;8.20;98.30;;;;;;4215196;28;20078;-87
2022/10/10 01:54:05;;;;;;;8.07;2.50;;;8.10;98.60;;;;;;4214693;28;20567;-87
2022/10/10 01:56:26;;;;;;;4.20;2.83;;;8.10;98.80;;;;;;4215870;28;20040;-87
2022/10/10 01:58:56;;;;;;;5.70;2.63;;;8.10;98.60;;;;;;4214645;28;20086;-87
2022/10/10 02:01:24;;;;;;;5.25;2.88;;;8.10;98.80;;;;;;4205190;28;20098;-86
2022/10/10 02:03:42;;;;;;;7.40;3.00;;;8.10;98.70;;;;;;4215257;28;20044;-87
2022/10/10 02:05:57;;;;;;;6.05;3.10;;;8.00;98.80;;;;;;4215613;28;20181;-87
2022/10/10 02:08:12;;;;;;;5.22;3.03;;;8.00;98.70;;;;;;4215289;28;20083;-88
2022/10/10 02:10:18;;;;;;;8.98;3.13;;;8.00;98.70;;;;;;4197252;28;20080;-87
2022/10/10 02:12:21;;;;;;;8.38;2.67;;;8.00;98.90;;;;;;4215094;28;20096;-87
2022/10/10 02:14:27;;;;;;;5.20;3.00;;;7.90;98.90;;;;;;4215037;28;20047;-87
2022/10/10 02:16:32;;;;;;;5.65;2.47;;;7.90;99.00;;;;;;4214183;28;20529;-87
2022/10/10 02:18:35;;;;;;;6.65;3.13;;;7.90;99.00;;;;;;4197782;28;20560;-87
2022/10/10 02:20:36;;;;;;;5.32;3.28;;;7.90;99.10;;;;;;4214050;28;20056;-87
2022/10/10 02:22:43;;;;;;;3.65;2.88;;;7.80;99.00;;;;;;4215319;28;20059;-87
2022/10/10 02:24:45;;;;;;;5.00;3.15;;;7.80;99.10;;;;;;4214616;28;20102;-87
2022/10/10 02:26:53;;;;;;;4.80;2.88;;;7.80;99.20;;;;;;4213727;28;20169;-87
2022/10/10 02:29:02;;;;;;;7.57;2.92;;;7.80;99.20;;;;;;4197225;28;20095;-86
2022/10/10 02:31:09;;;;;;;7.90;3.20;;;7.80;99.40;;;;;;4213722;28;20056;-86
2022/10/10 02:33:14;;;;;;;9.30;3.35;;;7.80;99.30;;;;;;4197481;28;20568;-87
2022/10/10 02:35:23;;;;;;;8.80;3.42;;;7.80;99.10;;;;;;4214570;28;20048;-86
2022/10/10 02:37:25;;;;;;;5.53;3.25;;;7.80;99.30;;;;;;4215270;28;20195;-87
2022/10/10 02:39:30;;;;;;;5.28;2.88;;;7.80;99.40;;;;;;4231473;28;20046;-87
2022/10/10 02:41:32;;;;;;;8.18;3.03;;;7.80;99.20;;;;;;4230258;28;20043;-87
2022/10/10 02:43:34;;;;;;;6.40;3.08;;;7.80;99.50;;;;;;4231280;28;20097;-87
2022/10/10 02:45:35;;;;;;;7.63;2.92;;;7.80;99.60;;;;;;4232134;28;20043;-86
2022/10/10 02:47:36;;;;;;;7.65;2.90;;;6.90;99.50;;;;;;4225298;28;20075;-87
2022/10/10 02:49:39;;;;;;;6.78;3.20;;;7.80;99.80;;;;;;4247232;27;20050;-87
2022/10/10 02:51:40;;;;;;;6.53;2.63;;;7.80;99.70;;;;;;4213872;28;20109;-87
2022/10/10 02:53:41;;;;;;;4.35;2.90;;;7.70;99.70;;;;;;4213572;28;20497;-86
2022/10/10 02:55:41;;;;;;;7.90;2.92;;;7.70;99.90;;;;;;4213698;28;20044;-87
2022/10/10 02:57:42;;;;;;;6.00;2.92;;;7.70;99.90;;;;;;4196422;28;20055;-87
2022/10/10 02:59:43;;;;;;;8.90;3.08;;;7.70;99.90;;;;;;4212885;28;20083;-87
2022/10/10 03:01:44;;;;;;;5.00;2.90;;;7.70;99.90;;;;;;4245791;27;20051;-87
2022/10/10 03:03:44;;;;;;;5.35;3.15;;;7.80;99.90;;;;;;4214273;28;20548;-87
2022/10/10 03:05:45;;;;;;;7.07;3.33;;;7.70;99.90;;;;;;4213446;28;20056;-87
2022/10/10 03:07:46;;;;;;;6.28;2.85;;;6.40;99.70;;;;;;4212733;28;20044;-87
2022/10/10 03:09:47;;;;;;;4.95;2.72;;;7.60;99.90;;;;;;4212584;28;20041;-87
2022/10/10 03:11:47;;;;;;;7.82;2.83;;;7.70;99.90;;;;;;4211787;28;20044;-86
2022/10/10 03:13:48;;;;;;;7.28;2.83;;;6.40;99.90;;;;;;4219502;28;20066;-87
2022/10/10 03:15:49;;;;;;;8.98;3.55;;;7.60;99.90;;;;;;4219703;28;20051;-87
2022/10/10 03:17:50;;;;;;;6.63;3.22;;;7.70;99.90;;;;;;4215268;28;20059;-87
2022/10/10 03:19:52;;;;;;;3.33;2.67;;;7.60;99.90;;;;;;4214585;28;20032;-86
2022/10/10 03:21:53;;;;;;;5.45;3.38;;;7.10;99.90;;;;;;4213997;28;20048;-86
2022/10/10 03:23:56;;;;;;;7.35;3.13;;;7.60;99.90;;;;;;4214130;28;20512;-86
2022/10/10 03:25:57;;;;;;;7.15;3.28;;;7.70;99.90;;;;;;4214760;28;20052;-86
2022/10/10 03:27:58;;;;;;;6.05;2.90;;;7.60;99.90;;;;;;4197688;28;20052;-86
2022/10/10 03:29:58;;;;;;;4.70;2.47;;;7.70;99.90;;;;;;4215041;28;20044;-87
2022/10/10 03:31:59;;;;;;;7.50;3.22;;;7.40;99.90;;;;;;4206767;28;20079;-86
2022/10/10 03:34:00;;;;;;;5.15;2.92;;;7.60;99.90;;;;;;4230002;28;20044;-86
2022/10/10 03:36:01;;;;;;;9.32;2.83;;;7.70;99.90;;;;;;4232209;28;20036;-87
2022/10/10 03:38:02;;;;;;;6.20;3.58;;;7.60;99.90;;;;;;4230569;28;20054;-86
2022/10/10 03:40:04;;;;;;;6.30;3.05;;;7.70;99.90;;;;;;4214170;28;20055;-86
2022/10/10 03:42:05;;;;;;;7.35;3.50;;;7.70;99.90;;;;;;4230057;28;20067;-86
2022/10/10 03:44:05;;;;;;;6.05;3.33;;;7.70;99.90;;;;;;4230533;28;20433;-86
2022/10/10 03:46:06;;;;;;;7.53;3.03;;;7.60;99.90;;;;;;4214767;28;20055;-86
2022/10/10 03:48:07;;;;;;;5.60;2.67;;;7.70;99.90;;;;;;4232900;28;20035;-86
2022/10/10 03:50:08;;;;;;;6.55;2.97;;;7.70;99.90;;;;;;4233338;28;20074;-85
2022/10/10 03:52:10;;;;;;;5.88;3.25;;;7.40;99.90;;;;;;4233679;28;20048;-86
2022/10/10 03:54:11;;;;;;;6.13;3.28;;;7.90;99.90;;;;;;4249232;28;20043;-85
2022/10/10 03:56:13;;;;;;;6.43;2.97;;;7.70;99.90;;;;;;4234558;28;20151;-86
2022/10/10 03:58:14;;;;;;;5.55;3.35;;;7.70;99.90;;;;;;4235122;28;20043;-86
2022/10/10 04:00:15;;;;;;;8.43;3.08;;;7.60;99.90;;;;;;4251558;28;20058;-86
2022/10/10 04:02:16;;;;;;;7.82;3.38;;;7.70;99.90;;;;;;4245342;28;20035;-85
2022/10/10 04:04:17;;;;;;;6.10;3.38;;;7.70;99.90;;;;;;4245067;28;20054;-85
2022/10/10 04:06:21;;;;;;;6.95;3.72;;;7.70;99.90;;;;;;4246693;28;20031;-86
2022/10/10 04:08:22;;;;;;;6.50;3.15;;;7.60;99.90;;;;;;4219876;28;20076;-86
2022/10/10 04:10:23;;;;;;;5.63;3.30;;;7.60;99.90;;;;;;4230688;28;20028;-86
2022/10/10 04:12:24;;;;;;;5.00;2.92;;;7.60;99.90;;;;;;4219377;28;20047;-86
2022/10/10 04:14:26;;;;;;;9.50;3.47;;;7.60;99.90;;;;;;4219249;28;20048;-86
2022/10/10 04:16:28;;;;;;;6.55;3.50;;;7.60;99.90;;;;;;4217040;28;20048;-86
2022/10/10 04:18:30;;;;;;;9.60;3.60;;;7.20;99.90;;;;;;4200274;28;20056;-86
2022/10/10 04:20:32;;;;;;;8.10;4.10;;;7.60;99.90;;;;;;4200354;28;20052;-85
2022/10/10 04:22:32;;;;;;;7.72;3.70;;;7.60;99.90;;;;;;4217510;28;20070;-86
2022/10/10 04:24:33;;;;;;;6.68;3.40;;;7.60;99.90;;;;;;4216386;28;20048;-86
2022/10/10 04:26:36;;;;;;;6.45;3.40;;;7.60;99.90;;;;;;4217233;28;20123;-86
2022/10/10 04:28:38;;;;;;;6.32;3.40;;;7.70;99.90;;;;;;4216697;28;20044;-86
2022/10/10 04:30:38;;;;;;;5.72;3.15;;;7.60;99.90;;;;;;4218767;28;20051;-86
2022/10/10 04:32:40;;;;;;;8.40;3.85;;;7.60;99.90;;;;;;4217836;28;20052;-87
2022/10/10 04:34:41;;;;;;;5.18;3.50;;;7.60;99.90;;;;;;4217930;28;20047;-86
2022/10/10 04:36:43;;;;;;;11.38;3.70;;;7.60;99.90;;;;;;4218276;28;20048;-85
2022/10/10 04:38:45;;;;;;;8.45;3.28;;;7.60;99.90;;;;;;4208030;28;20062;-86
2022/10/10 04:40:48;;;;;;;4.93;3.15;;;7.60;99.90;;;;;;4216064;28;20056;-86
2022/10/10 04:42:49;;;;;;;7.55;3.65;;;7.60;99.90;;;;;;4232003;28;20132;-87
2022/10/10 04:44:50;;;;;;;7.85;3.45;;;7.60;99.90;;;;;;4232214;28;20055;-86
2022/10/10 04:46:52;;;;;;;7.40;4.00;;;7.60;99.90;;;;;;4232220;28;20059;-86
2022/10/10 04:48:53;;;;;;;8.55;4.20;;;7.60;99.90;;;;;;4249257;27;20054;-86
2022/10/10 04:50:56;;;;;;;5.93;3.78;;;7.50;99.90;;;;;;4233535;28;20101;-86
2022/10/10 04:52:57;;;;;;;8.48;4.45;;;7.60;99.90;;;;;;4232567;28;20055;-86
2022/10/10 04:54:58;;;;;;;6.13;3.85;;;7.50;99.90;;;;;;4232162;28;20048;-86
2022/10/10 04:57:00;;;;;;;8.23;3.75;;;7.50;99.90;;;;;;4232931;28;20489;-86
2022/10/10 04:59:00;;;;;;;9.02;4.20;;;7.60;99.90;;;;;;4215179;28;20131;-86
2022/10/10 05:01:02;;;;;;;7.57;4.80;;;7.60;99.90;;;;;;4233782;28;20047;-86
2022/10/10 05:03:03;;;;;;;9.10;3.72;;;7.60;99.90;;;;;;4233266;28;20063;-86
2022/10/10 05:05:07;;;;;;;8.82;3.75;;;7.50;99.90;;;;;;4232176;28;20051;-87
2022/10/10 05:07:08;;;;;;;7.00;4.00;;;7.50;99.90;;;;;;4232313;28;20233;-86
2022/10/10 05:09:08;;;;;;;6.63;3.38;;;7.50;99.90;;;;;;4232607;28;20074;-86
2022/10/10 05:11:10;;;;;;;7.90;4.00;;;7.50;99.90;;;;;;4233877;28;20509;-86
2022/10/10 05:13:13;;;;;;;7.55;4.43;;;7.60;99.90;;;;;;4231942;28;20091;-86
2022/10/10 05:15:13;;;;;;;10.45;4.65;;;7.60;99.90;;;;;;4235894;28;20062;-86
2022/10/10 05:17:14;;;;;;;10.15;4.00;;;6.60;99.90;;;;;;4215404;28;20505;-86
2022/10/10 05:19:15;;;;;;;8.75;3.97;;;7.50;99.90;;;;;;4233708;28;20072;-86
2022/10/10 05:21:17;;;;;;;6.40;4.38;;;7.60;99.90;;;;;;4232120;28;20406;-86
2022/10/10 05:23:19;;;;;;;7.07;4.05;;;7.60;99.90;;;;;;4232443;28;20036;-86
2022/10/10 05:25:19;;;;;;;10.60;4.45;;;7.60;99.90;;;;;;4231964;28;20147;-88
2022/10/10 05:27:22;;;;;;;6.43;4.20;;;7.60;99.90;;;;;;4231953;28;20105;-87
2022/10/10 05:29:23;;;;;;;8.77;3.95;;;7.60;99.90;;;;;;4232040;28;20096;-87
2022/10/10 05:31:25;;;;;;;8.00;4.10;;;7.60;99.90;;;;;;4230217;28;20532;-87
2022/10/10 05:33:25;;;;;;;8.60;3.88;;;7.50;99.90;;;;;;4232111;28;20093;-87
2022/10/10 05:35:26;;;;;;;10.73;4.80;;;7.60;99.90;;;;;;4228042;28;20042;-87
2022/10/10 05:37:27;;;;;;;12.20;4.35;;;7.50;99.90;;;;;;4230921;28;20035;-88
2022/10/10 05:39:31;;;;;;;7.80;3.80;;;7.60;99.90;;;;;;4235495;27;20110;-87
2022/10/10 05:41:32;;;;;;;8.98;4.13;;;7.50;99.90;;;;;;4231979;28;20031;-87
2022/10/10 05:43:34;;;;;;;7.72;4.35;;;7.50;99.90;;;;;;4232023;28;20044;-85
2022/10/10 05:45:35;;;;;;;6.50;3.58;;;8.00;99.90;;;;;;4213529;28;20122;-84
2022/10/10 05:47:37;;;;;;;8.98;3.70;;;7.50;99.90;;;;;;4231724;28;20049;-86
2022/10/10 05:49:38;;;;;;;9.98;4.03;;;7.50;99.90;;;;;;4227882;28;20157;-86
2022/10/10 05:51:39;;;;;;;8.20;4.28;;;7.50;99.90;;;;;;4213707;28;20736;-85
2022/10/10 05:53:41;;;;;;;12.10;4.40;;;7.50;99.90;;;;;;4215371;28;20044;-86
2022/10/10 05:55:43;;;;;;;12.80;4.63;;;7.50;99.90;;;;;;4216689;28;20416;-87
2022/10/10 05:57:47;;;;;;;10.30;5.40;;;7.50;99.90;;;;;;4233529;27;20133;-88
2022/10/10 05:59:54;;;;;;;11.95;4.70;;;7.50;99.90;;;;;;4231658;28;20055;-87
2022/10/10 06:01:56;;;;;;;9.43;4.82;;;7.50;99.90;;;;;;4232219;28;20587;-88
2022/10/10 06:03:57;;;;;;;12.05;4.30;;;7.50;99.90;;;;;;4215049;28;20044;-88
2022/10/10 06:05:58;;;;;;;11.10;4.80;;;7.50;99.90;;;;;;4233092;27;20538;-88
2022/10/10 06:07:59;;;;;;;10.02;4.90;;;7.50;99.90;;;;;;4233241;28;20438;-87
2022/10/10 06:10:00;;;;;;;7.60;4.55;;;8.70;99.90;;;;;;4215409;28;20051;-87
2022/10/10 06:12:00;;;;;;;9.95;4.88;;;7.60;99.90;;;;;;4215060;28;20098;-86
2022/10/10 06:14:02;;;;;;;10.15;4.85;;;7.50;99.90;;;;;;4215029;28;20068;-87
2022/10/10 06:16:03;;;;;;;10.95;5.20;;;7.60;99.90;;;;;;4233219;28;20048;-87
2022/10/10 06:18:05;;;;;;;7.57;4.65;;;7.60;99.90;;;;;;4231700;28;20044;-87
2022/10/10 06:20:06;;;;;;;8.45;5.15;;;7.60;99.90;;;;;;4227481;28;20048;-86
2022/10/10 06:22:09;;;;;;;9.88;4.50;;;7.60;99.90;;;;;;4216317;28;20072;-87
2022/10/10 06:24:10;;;;;;;9.60;4.43;;;7.70;99.90;;;;;;4198113;28;20045;-88
2022/10/10 06:26:11;;;;;;;9.73;4.57;;;7.70;99.90;;;;;;4214843;28;20047;-87
2022/10/10 06:28:13;;;;;;;11.63;4.40;;;7.70;99.90;;;;;;4233075;28;20481;-88
2022/10/10 06:30:15;;;;;;;11.82;5.18;;;7.80;99.90;;;;;;4232216;28;20070;-89
2022/10/10 06:32:22;;;;;;;11.07;5.13;;;7.90;99.90;;;;;;4231834;28;20075;-89
2022/10/10 06:34:23;;;;;;;12.55;5.22;;;7.80;99.90;;;;;;4231311;28;20055;-86
2022/10/10 06:36:24;;;;;;;11.55;4.55;;;7.90;99.90;;;;;;4213675;28;20122;-87
2022/10/10 06:38:26;;;;;;;9.20;4.30;;;7.90;99.90;;;;;;4230889;28;20474;-88
2022/10/10 06:40:28;;;;;;;10.82;4.63;;;8.00;99.90;;;;;;4210315;28;20037;-88
2022/10/10 06:42:29;;;;;;;8.20;4.57;;;8.00;99.90;;;;;;4215609;28;20048;-88
2022/10/10 06:44:30;;;;;;;9.00;4.88;;;8.00;99.90;;;;;;4198910;28;20040;-88
2022/10/10 06:46:33;;;;;;;10.07;5.68;;;8.10;99.90;;;;;;4218072;28;20079;-87
2022/10/10 06:48:34;;;;;;;9.63;4.55;;;8.10;99.90;;;;;;4214991;28;20044;-85
2022/10/10 06:50:35;;;;;;;7.72;4.10;;;8.20;99.90;;;;;;4218419;28;20489;-87
2022/10/10 06:52:36;;;;;;;10.43;4.20;;;8.30;99.90;;;;;;4213223;28;20073;-85
2022/10/10 06:54:37;;;;;;;11.68;4.60;;;8.50;99.90;;;;;;4213164;28;20122;-82
2022/10/10 06:56:37;;;;;;;10.73;4.68;;;8.50;99.90;;;;;;4226231;28;20458;-85
2022/10/10 06:58:38;;;;;;;13.05;4.50;;;8.60;99.90;;;;;;4198859;28;20117;-85
2022/10/10 07:00:58;;;;;;;9.52;4.93;;;8.70;99.90;;;;;;4212626;28;20615;-85
2022/10/10 07:02:58;;;;;;;9.15;4.30;;;8.70;99.90;;;;;;4215364;28;20037;-86
2022/10/10 07:04:59;;;;;;;10.93;4.72;;;8.70;99.90;;;;;;4198126;28;20502;-85
2022/10/10 07:07:00;;;;;;;9.10;4.55;;;8.80;99.90;;;;;;4214696;28;20050;-85
2022/10/10 07:09:01;;;;;;;9.52;4.55;;;8.80;99.90;;;;;;4214376;28;20044;-86
2022/10/10 07:11:02;;;;;;;8.73;4.35;;;8.80;99.90;;;;;;4214762;28;20044;-86
2022/10/10 07:13:03;;;;;;;7.70;3.78;;;9.00;99.90;;;;;;4214273;28;20417;-86
2022/10/10 07:15:08;;;;;;;9.80;4.32;;;9.00;99.90;;;;;;4215291;28;20044;-86
2022/10/10 07:17:09;;;;;;;12.88;4.68;;;9.00;99.90;;;;;;4231037;28;20100;-85
2022/10/10 07:19:09;;;;;;;8.45;3.67;;;9.10;99.90;;;;;;4230432;28;20507;-86
2022/10/10 07:21:10;;;;;;;11.35;5.53;;;9.20;99.90;;;;;;4226579;28;20115;-86
2022/10/10 07:23:11;;;;;;;7.57;4.55;;;8.50;99.90;;;;;;4196591;28;20052;-86
2022/10/10 07:25:12;;;;;;;7.53;4.40;;;9.30;99.90;;;;;;4212280;28;20052;-85
2022/10/10 07:27:13;;;;;;;9.73;4.90;;;9.30;99.90;;;;;;4220283;28;20510;-85
2022/10/10 07:29:14;;;;;;;6.75;3.85;;;9.30;99.90;;;;;;4230130;28;20100;-84
2022/10/10 07:31:15;;;;;;;10.68;3.97;;;9.40;99.90;;;;;;4230087;28;20458;-84
2022/10/10 07:33:16;;;;;;;8.93;4.90;;;9.50;99.90;;;;;;4228659;28;20070;-84
2022/10/10 07:35:16;;;;;;;13.02;4.40;;;9.50;99.90;;;;;;4215736;28;20083;-84
2022/10/10 07:37:17;;;;;;;14.18;4.80;;;9.60;99.90;;;;;;4212623;28;20154;-84
2022/10/10 07:39:20;;;;;;;15.43;4.25;;;9.70;99.90;;;;;;4228143;28;20404;-84
2022/10/10 07:41:21;;;;;;;16.45;4.25;;;9.60;99.90;;;;;;4232230;28;20074;-84
2022/10/10 07:43:22;;;;;;;10.70;4.50;;;9.60;99.90;;;;;;4229314;28;20043;-84
2022/10/10 07:45:22;;;;;;;11.88;4.57;;;9.30;99.90;;;;;;4214301;28;20381;-84
2022/10/10 07:47:23;;;;;;;10.07;4.85;;;9.60;99.90;;;;;;4233268;28;20488;-84
2022/10/10 07:49:24;;;;;;;8.27;4.72;;;9.70;99.90;;;;;;4234294;28;20047;-83
2022/10/10 07:51:24;;;;;;;9.55;3.88;;;9.70;99.90;;;;;;4228511;28;20044;-84
2022/10/10 07:53:25;;;;;;;9.55;4.82;;;10.30;99.90;;;;;;4214593;28;20123;-84
2022/10/10 07:55:26;;;;;;;9.85;4.65;;;9.70;99.90;;;;;;4228241;28;20076;-85
2022/10/10 07:57:27;;;;;;;7.13;4.10;;;9.80;99.90;;;;;;4225808;28;20393;-84
2022/10/10 07:59:28;;;;;;;10.38;4.72;;;9.90;99.90;;;;;;4227914;28;20039;-85
2022/10/10 08:01:29;;;;;;;9.77;4.90;;;9.90;99.90;;;;;;4226240;28;20054;-85
2022/10/10 08:03:30;;;;;;;12.73;4.90;;;10.00;99.90;;;;;;4224803;28;20031;-85
2022/10/10 08:05:30;;;;;;;7.15;3.80;;;10.00;99.90;;;;;;4224399;28;20540;-85
2022/10/10 08:07:32;;;;;;;9.07;4.32;;;10.40;99.90;;;;;;4219450;28;20105;-85
2022/10/10 08:09:34;;;;;;;6.95;4.20;;;10.80;99.50;;;;;;4224430;28;20039;-86
2022/10/10 08:11:36;;;;;;;10.75;4.68;;;11.20;99.00;;;;;;4227314;28;20089;-85
2022/10/10 08:13:37;;;;;;;9.52;4.22;;;11.80;98.40;;;;;;4228660;28;20051;-84
2022/10/10 08:15:38;;;;;;;7.72;4.07;;;12.30;97.80;;;;;;4225051;28;20048;-85
2022/10/10 08:17:39;;;;;;;11.30;4.35;;;12.70;97.00;;;;;;4223796;28;20564;-85
2022/10/10 08:19:40;;;;;;;8.60;3.85;;;12.90;96.60;;;;;;4233131;28;20372;-85
2022/10/10 08:21:41;;;;;;;10.32;5.03;;;12.90;96.50;;;;;;4232680;28;20074;-85
2022/10/10 08:23:41;;;;;;;12.93;4.00;;;12.70;96.60;;;;;;4226473;28;20050;-85
2022/10/10 08:25:42;;;;;;;8.93;4.88;;;12.70;96.70;;;;;;4231445;28;20547;-85
2022/10/10 08:27:44;;;;;;;9.68;3.97;;;13.30;96.60;;;;;;4231624;28;20055;-84
2022/10/10 08:29:45;;;;;;;10.45;4.18;;;14.30;95.80;;;;;;4226482;28;20050;-85
2022/10/10 08:31:47;;;;;;;6.47;3.88;;;15.10;94.40;;;;;;4213791;28;20526;-85
2022/10/10 08:33:49;;;;;;;8.23;4.10;;;15.70;93.80;;;;;;4232638;28;20477;-85
2022/10/10 08:35:49;;;;;;;8.18;4.32;;;15.80;93.00;;;;;;4232649;28;20389;-84
2022/10/10 08:37:50;;;;;;;7.53;4.20;;;15.40;92.90;;;;;;4232573;28;20043;-85
2022/10/10 08:39:52;;;;;;;8.40;4.05;;;16.00;92.70;;;;;;4234380;28;20083;-85
2022/10/10 08:41:55;;;;;;;12.40;4.45;;;16.10;92.40;;;;;;4232119;28;20061;-85
2022/10/10 08:44:01;;;;;;;8.10;4.15;;;15.90;92.00;;;;;;4234016;28;20052;-85
2022/10/10 08:46:18;;;;;;;8.95;3.45;;;15.60;92.10;;;;;;4234252;28;20561;-85
2022/10/10 08:48:29;;;;;;;6.07;3.63;;;15.50;92.10;;;;;;4233405;28;20048;-85
2022/10/10 08:50:39;;;;;;;6.38;3.90;;;14.70;92.30;;;;;;4214152;28;20044;-85
2022/10/10 08:52:50;;;;;;;8.90;3.53;;;15.00;92.90;;;;;;4232264;28;20123;-86
2022/10/10 08:54:52;;;;;;;7.00;3.83;;;15.20;92.80;;;;;;4231214;28;20058;-86
2022/10/10 08:56:59;;;;;;;7.38;3.78;;;15.50;92.60;;;;;;4233370;28;20054;-86
2022/10/10 08:59:25;;;;;;;10.45;3.92;;;16.00;92.10;;;;;;4233346;28;20048;-85
2022/10/10 09:01:34;;;;;;;6.50;3.72;;;16.40;91.30;;;;;;4230200;28;20491;-85
2022/10/10 09:03:50;;;;;;;8.10;3.75;;;16.60;91.30;;;;;;4233851;28;20046;-85
2022/10/10 09:06:06;;;;;;;6.97;3.40;;;16.90;91.00;;;;;;4232330;28;20044;-85
2022/10/10 09:08:38;;;;;;;7.95;3.38;;;17.30;90.60;;;;;;4231471;28;20055;-85
2022/10/10 09:10:46;;;;;;;9.82;3.47;;;17.20;90.40;;;;;;4233019;28;20600;-86
2022/10/10 09:13:29;;;;;;;8.93;3.80;;;17.30;89.90;;;;;;4230909;28;20056;-85
2022/10/10 09:15:52;;;;;;;7.75;4.07;;;17.50;90.00;;;;;;4213125;28;20043;-85
2022/10/10 09:18:12;;;;;;;8.15;4.03;;;18.10;88.60;;;;;;4238913;27;20116;-85
2022/10/10 09:20:15;;;;;;;6.70;3.65;;;18.50;88.30;;;;;;4232490;28;20043;-85
2022/10/10 09:22:21;;;;;;;8.13;4.07;;;18.70;86.90;;;;;;4232622;28;20128;-85
2022/10/10 09:24:47;;;;;;;5.32;3.53;;;18.60;87.30;;;;;;4232465;28;20114;-85
2022/10/10 09:27:00;;;;;;;11.35;3.60;;;18.30;85.60;;;;;;4214137;28;20052;-85
2022/10/10 09:29:07;;;;;;;6.88;4.13;;;18.00;87.30;;;;;;4231697;28;20071;-85
2022/10/10 09:31:30;;;;;;;9.25;4.00;;;17.90;87.90;;;;;;4232244;28;20047;-85
2022/10/10 09:33:40;;;;;;;11.65;4.05;;;17.70;86.20;;;;;;4232210;28;20062;-85
2022/10/10 09:35:42;;;;;;;10.05;3.95;;;17.20;89.60;;;;;;4230689;28;20104;-85
2022/10/10 09:37:43;;;;;;;8.15;3.50;;;17.00;90.10;;;;;;4230499;28;20077;-85
2022/10/10 09:39:51;;;;;;;7.05;3.60;;;16.80;90.30;;;;;;4231981;28;20054;-85
2022/10/10 09:41:58;;;;;;;7.88;3.17;;;16.60;90.60;;;;;;4230322;28;20591;-85
2022/10/10 09:44:02;;;;;;;10.57;3.95;;;16.50;90.90;;;;;;4232225;28;20547;-85
2022/10/10 09:46:07;;;;;;;12.88;4.72;;;16.50;91.00;;;;;;4230859;28;20052;-87
2022/10/10 09:48:09;;;;;;;8.07;3.60;;;16.60;91.30;;;;;;4230372;28;20047;-85
2022/10/10 09:50:14;;;;;;;9.30;3.90;;;16.70;91.60;;;;;;4232017;28;20039;-86
2022/10/10 09:52:30;;;;;;;9.52;3.50;;;16.70;91.60;;;;;;4232901;28;20040;-86
2022/10/10 09:54:32;;;;;;;6.57;3.60;;;16.80;91.10;;;;;;4231579;27;20039;-86
2022/10/10 09:56:50;;;;;;;4.35;3.00;;;16.90;91.70;;;;;;4231862;28;20044;-86
2022/10/10 09:58:53;;;;;;;7.37;3.60;;;17.00;91.30;;;;;;4231773;28;20043;-86
2022/10/10 10:01:01;;;;;;;8.55;3.65;;;17.10;91.20;;;;;;4213281;28;20302;-87
2022/10/10 10:03:14;;;;;;;8.32;3.85;;;17.10;91.30;;;;;;4231817;28;20046;-86
2022/10/10 10:05:24;;;;;;;11.52;4.15;;;17.10;91.20;;;;;;4230282;28;20062;-86
2022/10/10 10:07:26;;;;;;;8.80;3.97;;;17.10;91.30;;;;;;4212406;28;20048;-86
2022/10/10 10:09:27;;;;;;;9.23;3.83;;;18.40;91.70;;;;;;4231565;28;20052;-86
2022/10/10 10:11:33;;;;;;;8.40;4.10;;;17.50;91.40;;;;;;4230322;28;20043;-86
2022/10/10 10:13:36;;;;;;;8.25;3.70;;;17.40;91.10;;;;;;4231463;27;20515;-86
2022/10/10 10:15:37;;;;;;;12.85;5.65;;;17.30;91.00;;;;;;4231562;28;20070;-86
2022/10/10 10:17:37;;;;;;;18.00;8.10;;;16.90;90.90;;;;;;4231867;28;20126;-84
2022/10/10 10:19:45;;;;;;;16.58;7.55;;;17.20;91.20;;;;;;4230257;28;20150;-85
2022/10/10 10:21:49;;;;;;;12.00;3.78;;;17.50;90.50;;;;;;4231007;28;20122;-85
2022/10/10 10:24:01;;;;;;;12.13;4.78;;;17.60;90.60;;;;;;4231468;28;20040;-85
2022/10/10 10:26:19;;;;;;;11.30;4.93;;;17.80;90.50;;;;;;4231920;28;20074;-86
2022/10/10 10:28:21;;;;;;;15.73;4.47;;;17.50;90.10;;;;;;4231115;28;20051;-86
2022/10/10 10:30:25;;;;;;;6.38;3.70;;;17.50;90.70;;;;;;4231334;28;20040;-86
2022/10/10 10:32:51;;;;;;;7.63;3.40;;;17.40;90.50;;;;;;4231314;28;20396;-85
2022/10/10 10:35:19;;;;;;;17.98;3.70;;;17.20;90.30;;;;;;4231060;28;20046;-85
2022/10/10 10:37:22;;;;;;;12.40;3.33;;;17.80;90.60;;;;;;4231042;28;20059;-85
2022/10/10 10:40:03;;;;;;;8.38;4.15;;;17.40;90.60;;;;;;4229344;28;20059;-85
2022/10/10 10:42:12;;;;;;;8.43;3.60;;;17.30;90.40;;;;;;4225272;28;20073;-86
2022/10/10 10:44:31;;;;;;;14.60;3.75;;;17.40;90.50;;;;;;4230341;28;20044;-86
2022/10/10 10:46:56;;;;;;;7.35;4.10;;;17.70;90.30;;;;;;4230438;28;20047;-86
2022/10/10 10:49:03;;;;;;;10.60;4.07;;;17.80;89.00;;;;;;4229015;28;20050;-86
2022/10/10 10:51:17;;;;;;;7.55;4.25;;;17.80;89.30;;;;;;4230580;28;20133;-85
2022/10/10 10:53:17;;;;;;;7.30;3.20;;;18.00;89.40;;;;;;4229701;28;20046;-86
2022/10/10 10:55:33;;;;;;;7.63;4.05;;;18.30;89.30;;;;;;4230375;28;20047;-85